sensor_id;sensor_type;location;lat;lon;timestamp;pressure;altitude;pressure_sealevel;temperature;humidity
54248;BME280;40161;39.768;2.722;2023-08-30T00:00:35;100715.25;;;21.17;88.53
54248;BME280;40161;39.768;2.722;2023-08-30T00:03:01;100727.69;;;21.12;88.47
54248;BME280;40161;39.768;2.722;2023-08-30T00:05:27;100711.34;;;20.98;91.16
54248;BME280;40161;39.768;2.722;2023-08-30T00:07:55;100720.00;;;21.16;90.86
54248;BME280;40161;39.768;2.722;2023-08-30T00:10:21;100735.78;;;21.39;89.61
54248;BME280;40161;39.768;2.722;2023-08-30T00:12:46;100735.78;;;21.39;88.78
54248;BME280;40161;39.768;2.722;2023-08-30T00:15:13;100675.53;;;20.96;89.31
54248;BME280;40161;39.768;2.722;2023-08-30T00:17:39;100742.50;;;21.42;89.76
54248;BME280;40161;39.768;2.722;2023-08-30T00:22:32;100726.78;;;21.31;87.98
54248;BME280;40161;39.768;2.722;2023-08-30T00:24:59;100709.84;;;21.09;89.45
54248;BME280;40161;39.768;2.722;2023-08-30T00:27:25;100717.28;;;21.29;87.94
54248;BME280;40161;39.768;2.722;2023-08-30T00:29:51;100728.81;;;21.31;86.56
54248;BME280;40161;39.768;2.722;2023-08-30T00:32:16;100742.31;;;21.49;85.45
54248;BME280;40161;39.768;2.722;2023-08-30T00:34:42;100722.09;;;21.45;84.30
54248;BME280;40161;39.768;2.722;2023-08-30T00:37:07;100712.94;;;21.44;84.67
54248;BME280;40161;39.768;2.722;2023-08-30T00:39:36;100698.44;;;21.33;84.67
54248;BME280;40161;39.768;2.722;2023-08-30T00:42:03;100744.25;;;21.19;88.55
54248;BME280;40161;39.768;2.722;2023-08-30T00:44:31;100703.84;;;20.95;87.54
54248;BME280;40161;39.768;2.722;2023-08-30T00:46:58;100724.28;;;21.21;87.14
54248;BME280;40161;39.768;2.722;2023-08-30T00:49:24;100699.31;;;21.01;85.92
54248;BME280;40161;39.768;2.722;2023-08-30T00:51:49;100668.13;;;20.73;84.78
54248;BME280;40161;39.768;2.722;2023-08-30T00:54:15;100698.44;;;21.04;84.01
54248;BME280;40161;39.768;2.722;2023-08-30T00:56:42;100711.31;;;21.14;83.46
54248;BME280;40161;39.768;2.722;2023-08-30T00:59:07;100691.63;;;21.05;84.96
54248;BME280;40161;39.768;2.722;2023-08-30T01:01:33;100723.56;;;21.33;81.64
54248;BME280;40161;39.768;2.722;2023-08-30T01:03:59;100674.88;;;21.05;79.95
54248;BME280;40161;39.768;2.722;2023-08-30T01:06:25;100723.28;;;21.44;80.42
54248;BME280;40161;39.768;2.722;2023-08-30T01:08:52;100727.22;;;21.46;81.63
54248;BME280;40161;39.768;2.722;2023-08-30T01:11:39;100725.34;;;21.56;82.42
54248;BME280;40161;39.768;2.722;2023-08-30T01:14:09;100717.34;;;21.58;81.96
54248;BME280;40161;39.768;2.722;2023-08-30T01:16:37;100714.28;;;21.23;84.66
54248;BME280;40161;39.768;2.722;2023-08-30T01:19:54;100720.47;;;20.98;86.45
54248;BME280;40161;39.768;2.722;2023-08-30T01:22:29;100722.69;;;20.91;86.47
54248;BME280;40161;39.768;2.722;2023-08-30T01:27:42;100687.16;;;20.62;85.33
54248;BME280;40161;39.768;2.722;2023-08-30T01:30:10;100658.09;;;20.43;86.40
54248;BME280;40161;39.768;2.722;2023-08-30T01:32:38;100701.00;;;20.82;85.77
54248;BME280;40161;39.768;2.722;2023-08-30T01:35:05;100692.78;;;20.75;86.55
54248;BME280;40161;39.768;2.722;2023-08-30T01:37:32;100670.56;;;20.38;88.01
54248;BME280;40161;39.768;2.722;2023-08-30T01:39:59;100703.75;;;20.49;90.01
54248;BME280;40161;39.768;2.722;2023-08-30T01:42:26;100691.94;;;20.61;88.64
54248;BME280;40161;39.768;2.722;2023-08-30T01:44:53;100688.53;;;20.70;87.14
54248;BME280;40161;39.768;2.722;2023-08-30T01:47:25;100701.59;;;20.41;89.73
54248;BME280;40161;39.768;2.722;2023-08-30T01:49:53;100708.69;;;20.25;90.79
54248;BME280;40161;39.768;2.722;2023-08-30T01:52:20;100695.78;;;20.15;89.31
54248;BME280;40161;39.768;2.722;2023-08-30T01:54:47;100681.66;;;20.06;88.61
54248;BME280;40161;39.768;2.722;2023-08-30T01:57:13;100695.63;;;20.22;88.70
54248;BME280;40161;39.768;2.722;2023-08-30T01:59:39;100681.63;;;19.89;90.33
54248;BME280;40161;39.768;2.722;2023-08-30T02:02:04;100656.91;;;19.91;90.09
54248;BME280;40161;39.768;2.722;2023-08-30T02:04:30;100660.56;;;19.88;88.97
54248;BME280;40161;39.768;2.722;2023-08-30T02:07:08;100662.22;;;19.86;90.00
54248;BME280;40161;39.768;2.722;2023-08-30T02:10:00;100690.94;;;19.99;90.03
54248;BME280;40161;39.768;2.722;2023-08-30T02:12:49;100639.41;;;19.55;90.05
54248;BME280;40161;39.768;2.722;2023-08-30T02:15:16;100671.03;;;20.01;89.73
54248;BME280;40161;39.768;2.722;2023-08-30T02:17:43;100678.66;;;20.17;89.63
54248;BME280;40161;39.768;2.722;2023-08-30T02:20:09;100593.72;;;19.72;88.29
54248;BME280;40161;39.768;2.722;2023-08-30T02:22:35;100681.28;;;20.24;87.88
54248;BME280;40161;39.768;2.722;2023-08-30T02:25:01;100638.22;;;20.08;88.43
54248;BME280;40161;39.768;2.722;2023-08-30T02:27:34;100601.03;;;19.82;88.23
54248;BME280;40161;39.768;2.722;2023-08-30T02:30:03;100672.22;;;20.36;88.56
54248;BME280;40161;39.768;2.722;2023-08-30T02:32:29;100606.53;;;19.86;89.46
54248;BME280;40161;39.768;2.722;2023-08-30T02:34:56;100669.81;;;20.02;91.87
54248;BME280;40161;39.768;2.722;2023-08-30T02:37:22;100652.94;;;19.92;91.43
54248;BME280;40161;39.768;2.722;2023-08-30T02:39:47;100631.75;;;19.95;90.87
54248;BME280;40161;39.768;2.722;2023-08-30T02:42:13;100590.50;;;19.74;90.86
54248;BME280;40161;39.768;2.722;2023-08-30T02:44:39;100623.50;;;19.91;90.14
54248;BME280;40161;39.768;2.722;2023-08-30T02:47:04;100642.13;;;19.95;90.73
54248;BME280;40161;39.768;2.722;2023-08-30T02:49:30;100661.09;;;19.63;92.78
54248;BME280;40161;39.768;2.722;2023-08-30T02:51:56;100607.97;;;19.54;92.70
54248;BME280;40161;39.768;2.722;2023-08-30T02:54:21;100617.63;;;19.50;91.51
54248;BME280;40161;39.768;2.722;2023-08-30T02:56:48;100645.31;;;19.57;94.14
54248;BME280;40161;39.768;2.722;2023-08-30T02:59:14;100598.75;;;19.21;92.67
54248;BME280;40161;39.768;2.722;2023-08-30T03:01:39;100624.59;;;19.58;92.50
54248;BME280;40161;39.768;2.722;2023-08-30T03:04:06;100647.34;;;19.92;91.53
54248;BME280;40161;39.768;2.722;2023-08-30T03:06:35;100632.16;;;19.77;90.79
54248;BME280;40161;39.768;2.722;2023-08-30T03:09:01;100642.56;;;19.93;91.13
54248;BME280;40161;39.768;2.722;2023-08-30T03:11:28;100599.63;;;19.74;89.64
54248;BME280;40161;39.768;2.722;2023-08-30T03:13:54;100654.44;;;20.13;89.87
54248;BME280;40161;39.768;2.722;2023-08-30T03:16:20;100599.97;;;19.56;91.02
54248;BME280;40161;39.768;2.722;2023-08-30T03:18:46;100651.00;;;19.89;90.79
54248;BME280;40161;39.768;2.722;2023-08-30T03:21:12;100587.59;;;19.41;91.16
54248;BME280;40161;39.768;2.722;2023-08-30T03:23:39;100653.06;;;19.85;90.60
54248;BME280;40161;39.768;2.722;2023-08-30T03:26:12;100643.75;;;19.76;90.21
54248;BME280;40161;39.768;2.722;2023-08-30T03:28:38;100628.25;;;19.55;90.67
54248;BME280;40161;39.768;2.722;2023-08-30T03:31:18;100612.91;;;19.66;90.08
54248;BME280;40161;39.768;2.722;2023-08-30T03:33:44;100593.63;;;19.56;89.03
54248;BME280;40161;39.768;2.722;2023-08-30T03:36:10;100602.00;;;19.56;88.62
54248;BME280;40161;39.768;2.722;2023-08-30T03:38:37;100641.81;;;19.53;89.92
54248;BME280;40161;39.768;2.722;2023-08-30T03:41:05;100626.97;;;19.39;92.15
54248;BME280;40161;39.768;2.722;2023-08-30T03:43:32;100616.44;;;19.31;90.47
54248;BME280;40161;39.768;2.722;2023-08-30T03:45:59;100623.78;;;19.41;90.30
54248;BME280;40161;39.768;2.722;2023-08-30T03:48:25;100617.25;;;19.48;89.45
54248;BME280;40161;39.768;2.722;2023-08-30T03:50:51;100616.91;;;19.45;89.48
54248;BME280;40161;39.768;2.722;2023-08-30T03:53:16;100614.84;;;19.50;89.70
54248;BME280;40161;39.768;2.722;2023-08-30T03:55:42;100630.38;;;19.47;89.81
54248;BME280;40161;39.768;2.722;2023-08-30T03:58:08;100603.22;;;19.35;91.35
54248;BME280;40161;39.768;2.722;2023-08-30T04:00:36;100605.94;;;19.38;89.10
54248;BME280;40161;39.768;2.722;2023-08-30T04:03:02;100609.88;;;19.41;86.83
54248;BME280;40161;39.768;2.722;2023-08-30T04:05:32;100642.88;;;19.59;85.83
54248;BME280;40161;39.768;2.722;2023-08-30T04:07:59;100600.94;;;19.30;86.13
54248;BME280;40161;39.768;2.722;2023-08-30T04:10:24;100619.47;;;19.36;84.55
54248;BME280;40161;39.768;2.722;2023-08-30T04:12:50;100645.09;;;19.67;84.78
54248;BME280;40161;39.768;2.722;2023-08-30T04:15:16;100600.72;;;19.40;84.35
54248;BME280;40161;39.768;2.722;2023-08-30T04:17:41;100610.84;;;19.71;83.14
54248;BME280;40161;39.768;2.722;2023-08-30T04:20:08;100595.91;;;19.61;83.39
54248;BME280;40161;39.768;2.722;2023-08-30T04:22:36;100629.38;;;19.77;82.66
54248;BME280;40161;39.768;2.722;2023-08-30T04:25:02;100588.56;;;19.51;83.74
54248;BME280;40161;39.768;2.722;2023-08-30T04:27:28;100597.59;;;19.38;84.04
54248;BME280;40161;39.768;2.722;2023-08-30T04:29:53;100579.75;;;19.36;84.36
54248;BME280;40161;39.768;2.722;2023-08-30T04:32:19;100580.13;;;19.38;84.43
54248;BME280;40161;39.768;2.722;2023-08-30T04:34:45;100577.81;;;19.33;84.34
54248;BME280;40161;39.768;2.722;2023-08-30T04:37:10;100641.53;;;19.47;86.35
54248;BME280;40161;39.768;2.722;2023-08-30T04:39:36;100623.09;;;19.53;84.88
54248;BME280;40161;39.768;2.722;2023-08-30T04:42:01;100631.97;;;19.48;85.52
54248;BME280;40161;39.768;2.722;2023-08-30T04:44:28;100628.19;;;19.38;87.63
54248;BME280;40161;39.768;2.722;2023-08-30T04:46:54;100639.72;;;19.57;86.63
54248;BME280;40161;39.768;2.722;2023-08-30T04:49:21;100625.69;;;19.64;86.16
54248;BME280;40161;39.768;2.722;2023-08-30T04:51:47;100588.53;;;19.34;85.77
54248;BME280;40161;39.768;2.722;2023-08-30T04:54:13;100644.03;;;19.61;86.44
54248;BME280;40161;39.768;2.722;2023-08-30T04:56:39;100582.53;;;19.16;86.26
54248;BME280;40161;39.768;2.722;2023-08-30T04:59:04;100638.75;;;19.67;85.37
54248;BME280;40161;39.768;2.722;2023-08-30T05:01:30;100615.47;;;19.57;84.59
54248;BME280;40161;39.768;2.722;2023-08-30T05:03:56;100577.59;;;19.43;83.97
54248;BME280;40161;39.768;2.722;2023-08-30T05:06:21;100621.19;;;19.70;84.32
54248;BME280;40161;39.768;2.722;2023-08-30T05:08:47;100637.25;;;19.82;83.74
54248;BME280;40161;39.768;2.722;2023-08-30T05:11:13;100620.53;;;19.82;81.97
54248;BME280;40161;39.768;2.722;2023-08-30T05:13:38;100628.44;;;19.84;83.41
54248;BME280;40161;39.768;2.722;2023-08-30T05:16:04;100646.09;;;19.77;85.76
54248;BME280;40161;39.768;2.722;2023-08-30T05:18:30;100597.78;;;19.48;85.84
54248;BME280;40161;39.768;2.722;2023-08-30T05:20:55;100644.88;;;19.78;86.44
54248;BME280;40161;39.768;2.722;2023-08-30T05:23:21;100606.00;;;19.55;85.84
54248;BME280;40161;39.768;2.722;2023-08-30T05:25:47;100581.22;;;19.40;86.94
54248;BME280;40161;39.768;2.722;2023-08-30T05:28:12;100638.59;;;19.74;86.67
54248;BME280;40161;39.768;2.722;2023-08-30T05:30:42;100637.75;;;19.77;87.19
54248;BME280;40161;39.768;2.722;2023-08-30T05:33:09;100643.47;;;19.70;87.75
54248;BME280;40161;39.768;2.722;2023-08-30T05:35:34;100627.19;;;19.68;87.43
54248;BME280;40161;39.768;2.722;2023-08-30T05:38:00;100613.81;;;19.60;88.15
54248;BME280;40161;39.768;2.722;2023-08-30T05:40:26;100619.75;;;19.62;88.96
54248;BME280;40161;39.768;2.722;2023-08-30T05:42:51;100623.97;;;19.70;88.10
54248;BME280;40161;39.768;2.722;2023-08-30T05:45:17;100587.88;;;19.47;87.25
54248;BME280;40161;39.768;2.722;2023-08-30T05:47:42;100652.56;;;19.90;87.98
54248;BME280;40161;39.768;2.722;2023-08-30T05:50:08;100635.66;;;19.81;87.12
54248;BME280;40161;39.768;2.722;2023-08-30T05:52:34;100656.56;;;19.89;88.85
54248;BME280;40161;39.768;2.722;2023-08-30T05:55:00;100621.75;;;19.61;88.54
54248;BME280;40161;39.768;2.722;2023-08-30T05:57:25;100654.88;;;19.76;87.97
54248;BME280;40161;39.768;2.722;2023-08-30T05:59:52;100625.53;;;19.71;87.06
54248;BME280;40161;39.768;2.722;2023-08-30T06:02:18;100633.56;;;19.85;86.43
54248;BME280;40161;39.768;2.722;2023-08-30T06:04:44;100622.88;;;19.84;84.97
54248;BME280;40161;39.768;2.722;2023-08-30T06:07:09;100666.09;;;20.25;84.95
54248;BME280;40161;39.768;2.722;2023-08-30T06:09:35;100674.22;;;20.35;85.96
54248;BME280;40161;39.768;2.722;2023-08-30T06:12:00;100673.53;;;20.31;87.64
54248;BME280;40161;39.768;2.722;2023-08-30T06:14:26;100669.41;;;20.36;86.62
54248;BME280;40161;39.768;2.722;2023-08-30T06:16:51;100669.16;;;20.47;85.77
54248;BME280;40161;39.768;2.722;2023-08-30T06:19:17;100685.66;;;20.57;85.68
54248;BME280;40161;39.768;2.722;2023-08-30T06:21:43;100669.28;;;20.59;84.90
54248;BME280;40161;39.768;2.722;2023-08-30T06:24:09;100680.53;;;20.72;84.28
54248;BME280;40161;39.768;2.722;2023-08-30T06:26:34;100665.00;;;20.71;84.30
54248;BME280;40161;39.768;2.722;2023-08-30T06:29:00;100678.34;;;20.80;84.29
54248;BME280;40161;39.768;2.722;2023-08-30T06:31:26;100663.16;;;20.81;84.88
54248;BME280;40161;39.768;2.722;2023-08-30T06:33:53;100659.50;;;20.84;84.07
54248;BME280;40161;39.768;2.722;2023-08-30T06:36:18;100667.25;;;20.93;85.22
54248;BME280;40161;39.768;2.722;2023-08-30T06:38:44;100679.50;;;21.12;84.93
54248;BME280;40161;39.768;2.722;2023-08-30T06:41:10;100620.72;;;20.73;83.92
54248;BME280;40161;39.768;2.722;2023-08-30T06:43:35;100666.31;;;21.12;82.75
54248;BME280;40161;39.768;2.722;2023-08-30T06:46:01;100695.31;;;21.31;84.01
54248;BME280;40161;39.768;2.722;2023-08-30T06:48:27;100673.72;;;21.19;85.30
54248;BME280;40161;39.768;2.722;2023-08-30T06:50:52;100668.59;;;21.17;87.46
54248;BME280;40161;39.768;2.722;2023-08-30T06:53:18;100682.19;;;21.15;89.33
54248;BME280;40161;39.768;2.722;2023-08-30T06:55:44;100678.22;;;21.00;90.59
54248;BME280;40161;39.768;2.722;2023-08-30T06:58:09;100678.22;;;21.00;89.65
54248;BME280;40161;39.768;2.722;2023-08-30T07:00:35;100688.13;;;21.17;89.03
54248;BME280;40161;39.768;2.722;2023-08-30T07:03:00;100683.22;;;21.21;88.53
54248;BME280;40161;39.768;2.722;2023-08-30T07:07:51;100671.59;;;21.23;87.60
54248;BME280;40161;39.768;2.722;2023-08-30T07:10:17;100675.44;;;21.29;87.40
54248;BME280;40161;39.768;2.722;2023-08-30T07:12:43;100664.53;;;21.35;87.46
54248;BME280;40161;39.768;2.722;2023-08-30T07:15:10;100697.34;;;21.60;86.93
54248;BME280;40161;39.768;2.722;2023-08-30T07:17:36;100662.78;;;21.41;86.44
54248;BME280;40161;39.768;2.722;2023-08-30T07:20:01;100678.00;;;21.52;86.26
54248;BME280;40161;39.768;2.722;2023-08-30T07:22:28;100676.53;;;21.61;85.27
54248;BME280;40161;39.768;2.722;2023-08-30T07:24:54;100681.16;;;21.67;84.97
54248;BME280;40161;39.768;2.722;2023-08-30T07:27:19;100633.78;;;21.51;85.09
54248;BME280;40161;39.768;2.722;2023-08-30T07:29:45;100667.06;;;21.71;85.24
54248;BME280;40161;39.768;2.722;2023-08-30T07:32:11;100704.91;;;22.01;84.80
54248;BME280;40161;39.768;2.722;2023-08-30T07:34:37;100707.25;;;22.02;84.91
54248;BME280;40161;39.768;2.722;2023-08-30T07:37:02;100696.97;;;21.99;84.96
54248;BME280;40161;39.768;2.722;2023-08-30T07:39:28;100698.53;;;22.00;85.51
54248;BME280;40161;39.768;2.722;2023-08-30T07:41:54;100721.13;;;22.19;84.77
54248;BME280;40161;39.768;2.722;2023-08-30T07:44:19;100679.44;;;21.99;83.08
54248;BME280;40161;39.768;2.722;2023-08-30T07:46:45;100706.63;;;22.24;83.22
54248;BME280;40161;39.768;2.722;2023-08-30T07:49:11;100745.75;;;22.49;81.96
54248;BME280;40161;39.768;2.722;2023-08-30T07:51:37;100686.28;;;22.23;81.85
54248;BME280;40161;39.768;2.722;2023-08-30T07:54:03;100705.28;;;22.41;81.10
54248;BME280;40161;39.768;2.722;2023-08-30T07:56:28;100719.81;;;22.62;80.53
54248;BME280;40161;39.768;2.722;2023-08-30T07:58:54;100685.47;;;22.48;80.14
54248;BME280;40161;39.768;2.722;2023-08-30T08:01:20;100725.28;;;22.65;79.79
54248;BME280;40161;39.768;2.722;2023-08-30T08:03:46;100723.91;;;22.83;79.31
54248;BME280;40161;39.768;2.722;2023-08-30T08:06:12;100708.13;;;22.76;79.93
54248;BME280;40161;39.768;2.722;2023-08-30T08:08:37;100714.28;;;22.96;80.47
54248;BME280;40161;39.768;2.722;2023-08-30T08:11:03;100713.25;;;22.90;80.27
54248;BME280;40161;39.768;2.722;2023-08-30T08:13:29;100726.25;;;22.97;78.62
54248;BME280;40161;39.768;2.722;2023-08-30T08:15:57;100742.13;;;23.13;77.92
54248;BME280;40161;39.768;2.722;2023-08-30T08:18:24;100737.28;;;23.13;77.30
54248;BME280;40161;39.768;2.722;2023-08-30T08:20:51;100724.19;;;23.10;77.08
54248;BME280;40161;39.768;2.722;2023-08-30T08:23:17;100747.53;;;23.29;78.01
54248;BME280;40161;39.768;2.722;2023-08-30T08:25:43;100732.56;;;23.23;78.86
54248;BME280;40161;39.768;2.722;2023-08-30T08:28:08;100740.72;;;23.30;79.41
54248;BME280;40161;39.768;2.722;2023-08-30T08:30:34;100739.34;;;23.35;79.64
54248;BME280;40161;39.768;2.722;2023-08-30T08:33:00;100752.81;;;23.49;78.95
54248;BME280;40161;39.768;2.722;2023-08-30T08:35:26;100729.50;;;23.30;77.50
54248;BME280;40161;39.768;2.722;2023-08-30T08:37:51;100760.19;;;23.56;77.43
54248;BME280;40161;39.768;2.722;2023-08-30T08:40:17;100761.31;;;23.58;77.00
54248;BME280;40161;39.768;2.722;2023-08-30T08:42:43;100717.84;;;23.32;76.38
54248;BME280;40161;39.768;2.722;2023-08-30T08:45:10;100753.69;;;23.59;76.74
54248;BME280;40161;39.768;2.722;2023-08-30T08:47:37;100716.81;;;23.38;77.84
54248;BME280;40161;39.768;2.722;2023-08-30T08:50:03;100748.59;;;23.44;77.05
54248;BME280;40161;39.768;2.722;2023-08-30T08:52:29;100764.13;;;23.58;77.24
54248;BME280;40161;39.768;2.722;2023-08-30T08:54:56;100729.69;;;23.36;77.13
54248;BME280;40161;39.768;2.722;2023-08-30T08:57:23;100763.84;;;23.65;77.92
54248;BME280;40161;39.768;2.722;2023-08-30T08:59:49;100767.91;;;23.64;74.93
54248;BME280;40161;39.768;2.722;2023-08-30T09:02:15;100762.06;;;23.72;73.72
54248;BME280;40161;39.768;2.722;2023-08-30T09:04:41;100727.97;;;23.51;73.57
54248;BME280;40161;39.768;2.722;2023-08-30T09:07:07;100760.03;;;23.72;73.07
54248;BME280;40161;39.768;2.722;2023-08-30T09:09:33;100792.44;;;23.95;73.85
54248;BME280;40161;39.768;2.722;2023-08-30T09:11:59;100789.94;;;23.97;72.51
54248;BME280;40161;39.768;2.722;2023-08-30T09:14:25;100792.75;;;23.97;72.04
54248;BME280;40161;39.768;2.722;2023-08-30T09:16:59;100786.88;;;24.04;72.41
54248;BME280;40161;39.768;2.722;2023-08-30T09:19:28;100755.16;;;23.85;72.18
54248;BME280;40161;39.768;2.722;2023-08-30T09:21:55;100791.22;;;24.05;72.11
54248;BME280;40161;39.768;2.722;2023-08-30T09:24:21;100788.19;;;24.12;71.21
54248;BME280;40161;39.768;2.722;2023-08-30T09:26:55;100729.09;;;23.76;71.20
54248;BME280;40161;39.768;2.722;2023-08-30T09:29:21;100804.44;;;24.27;71.28
54248;BME280;40161;39.768;2.722;2023-08-30T09:31:51;100756.94;;;24.01;69.96
54248;BME280;40161;39.768;2.722;2023-08-30T09:34:26;100801.38;;;24.34;70.63
54248;BME280;40161;39.768;2.722;2023-08-30T09:36:52;100797.53;;;24.41;71.57
54248;BME280;40161;39.768;2.722;2023-08-30T09:39:17;100802.69;;;24.42;70.93
54248;BME280;40161;39.768;2.722;2023-08-30T09:41:45;100772.97;;;24.23;70.48
54248;BME280;40161;39.768;2.722;2023-08-30T09:44:18;100804.56;;;24.45;69.98
54248;BME280;40161;39.768;2.722;2023-08-30T09:46:49;100799.94;;;24.51;69.94
54248;BME280;40161;39.768;2.722;2023-08-30T09:49:14;100792.81;;;24.37;69.71
54248;BME280;40161;39.768;2.722;2023-08-30T09:51:44;100746.78;;;24.16;68.93
54248;BME280;40161;39.768;2.722;2023-08-30T09:54:17;100805.44;;;24.64;69.47
54248;BME280;40161;39.768;2.722;2023-08-30T09:56:43;100803.28;;;24.68;67.71
54248;BME280;40161;39.768;2.722;2023-08-30T09:59:14;100720.44;;;24.14;68.69
54248;BME280;40161;39.768;2.722;2023-08-30T10:01:43;100811.69;;;24.68;68.55
54248;BME280;40161;39.768;2.722;2023-08-30T10:04:09;100796.56;;;24.66;68.90
54248;BME280;40161;39.768;2.722;2023-08-30T10:06:37;100797.94;;;24.61;68.67
54248;BME280;40161;39.768;2.722;2023-08-30T10:09:03;100762.53;;;24.54;68.68
54248;BME280;40161;39.768;2.722;2023-08-30T10:11:34;100807.38;;;24.95;68.72
54248;BME280;40161;39.768;2.722;2023-08-30T10:14:03;100775.22;;;24.77;67.51
54248;BME280;40161;39.768;2.722;2023-08-30T10:17:02;100812.59;;;25.05;67.68
54248;BME280;40161;39.768;2.722;2023-08-30T10:19:34;100825.81;;;25.05;66.95
54248;BME280;40161;39.768;2.722;2023-08-30T10:22:03;100774.44;;;24.77;66.04
54248;BME280;40161;39.768;2.722;2023-08-30T10:24:37;100777.38;;;24.64;67.00
54248;BME280;40161;39.768;2.722;2023-08-30T10:27:05;100804.09;;;24.78;66.85
54248;BME280;40161;39.768;2.722;2023-08-30T10:29:34;100825.19;;;25.01;67.14
54248;BME280;40161;39.768;2.722;2023-08-30T10:32:07;100805.72;;;25.06;67.00
54248;BME280;40161;39.768;2.722;2023-08-30T10:34:34;100804.47;;;25.07;66.74
54248;BME280;40161;39.768;2.722;2023-08-30T10:37:00;100823.56;;;25.13;65.95
54248;BME280;40161;39.768;2.722;2023-08-30T10:39:38;100819.34;;;25.17;65.99
54248;BME280;40161;39.768;2.722;2023-08-30T10:42:15;100784.81;;;24.98;65.96
54248;BME280;40161;39.768;2.722;2023-08-30T10:47:38;100784.13;;;24.76;65.88
54248;BME280;40161;39.768;2.722;2023-08-30T10:50:06;100820.06;;;24.99;66.42
54248;BME280;40161;39.768;2.722;2023-08-30T10:52:32;100782.34;;;24.60;65.12
54248;BME280;40161;39.768;2.722;2023-08-30T10:55:09;100785.03;;;24.73;65.00
54248;BME280;40161;39.768;2.722;2023-08-30T10:57:35;100795.50;;;24.72;65.10
54248;BME280;40161;39.768;2.722;2023-08-30T11:00:09;100782.22;;;24.73;66.32
54248;BME280;40161;39.768;2.722;2023-08-30T11:02:36;100796.50;;;24.97;65.54
54248;BME280;40161;39.768;2.722;2023-08-30T11:05:05;100777.25;;;24.77;65.61
54248;BME280;40161;39.768;2.722;2023-08-30T11:07:32;100781.78;;;24.83;65.41
54248;BME280;40161;39.768;2.722;2023-08-30T11:09:58;100811.34;;;25.06;65.77
54248;BME280;40161;39.768;2.722;2023-08-30T11:12:24;100764.94;;;24.74;65.17
54248;BME280;40161;39.768;2.722;2023-08-30T11:14:55;100753.56;;;24.78;64.54
54248;BME280;40161;39.768;2.722;2023-08-30T11:17:21;100798.75;;;25.20;64.06
54248;BME280;40161;39.768;2.722;2023-08-30T11:19:50;100797.81;;;25.14;63.77
54248;BME280;40161;39.768;2.722;2023-08-30T11:22:17;100775.28;;;25.05;64.27
54248;BME280;40161;39.768;2.722;2023-08-30T11:24:43;100766.53;;;24.94;63.59
54248;BME280;40161;39.768;2.722;2023-08-30T11:27:09;100815.16;;;25.31;64.07
54248;BME280;40161;39.768;2.722;2023-08-30T11:29:35;100804.66;;;25.22;63.29
54248;BME280;40161;39.768;2.722;2023-08-30T11:32:01;100803.59;;;25.29;63.43
54248;BME280;40161;39.768;2.722;2023-08-30T11:34:27;100813.28;;;25.37;63.82
54248;BME280;40161;39.768;2.722;2023-08-30T11:36:53;100803.91;;;25.22;63.38
54248;BME280;40161;39.768;2.722;2023-08-30T11:39:19;100794.06;;;25.17;64.12
54248;BME280;40161;39.768;2.722;2023-08-30T11:41:46;100810.59;;;25.15;63.88
54248;BME280;40161;39.768;2.722;2023-08-30T11:44:12;100807.34;;;25.17;63.94
54248;BME280;40161;39.768;2.722;2023-08-30T11:46:37;100790.16;;;25.15;63.54
54248;BME280;40161;39.768;2.722;2023-08-30T11:49:03;100743.78;;;25.01;62.91
54248;BME280;40161;39.768;2.722;2023-08-30T11:51:29;100803.91;;;25.49;63.29
54248;BME280;40161;39.768;2.722;2023-08-30T11:53:57;100801.75;;;25.53;62.83
54248;BME280;40161;39.768;2.722;2023-08-30T11:56:23;100770.38;;;25.37;63.24
54248;BME280;40161;39.768;2.722;2023-08-30T11:58:49;100807.06;;;25.61;62.84
54248;BME280;40161;39.768;2.722;2023-08-30T12:01:18;100811.88;;;25.69;62.80
54248;BME280;40161;39.768;2.722;2023-08-30T12:03:44;100793.63;;;25.55;62.06
54248;BME280;40161;39.768;2.722;2023-08-30T12:06:15;100762.25;;;25.48;62.59
54248;BME280;40161;39.768;2.722;2023-08-30T12:08:41;100793.16;;;25.66;61.04
54248;BME280;40161;39.768;2.722;2023-08-30T12:11:17;100730.75;;;25.34;62.06
54248;BME280;40161;39.768;2.722;2023-08-30T12:13:44;100782.38;;;25.74;62.43
54248;BME280;40161;39.768;2.722;2023-08-30T12:16:15;100801.44;;;25.88;62.06
54248;BME280;40161;39.768;2.722;2023-08-30T12:18:41;100743.22;;;25.52;62.11
54248;BME280;40161;39.768;2.722;2023-08-30T12:21:07;100796.75;;;25.94;62.45
54248;BME280;40161;39.768;2.722;2023-08-30T12:23:33;100760.03;;;25.70;60.47
54248;BME280;40161;39.768;2.722;2023-08-30T12:26:04;100790.78;;;26.01;62.56
54248;BME280;40161;39.768;2.722;2023-08-30T12:28:31;100777.06;;;25.94;59.67
54248;BME280;40161;39.768;2.722;2023-08-30T12:30:57;100797.66;;;26.10;59.33
54248;BME280;40161;39.768;2.722;2023-08-30T12:33:24;100787.34;;;26.07;61.00
54248;BME280;40161;39.768;2.722;2023-08-30T12:35:57;100805.00;;;26.16;60.84
54248;BME280;40161;39.768;2.722;2023-08-30T12:38:23;100798.59;;;26.16;60.58
54248;BME280;40161;39.768;2.722;2023-08-30T12:40:51;100804.84;;;26.11;60.68
54248;BME280;40161;39.768;2.722;2023-08-30T12:43:17;100797.94;;;26.12;60.26
54248;BME280;40161;39.768;2.722;2023-08-30T12:45:44;100807.03;;;26.16;59.55
54248;BME280;40161;39.768;2.722;2023-08-30T12:48:11;100785.59;;;26.18;60.13
54248;BME280;40161;39.768;2.722;2023-08-30T12:50:38;100784.69;;;26.12;60.31
54248;BME280;40161;39.768;2.722;2023-08-30T12:53:05;100785.13;;;26.20;59.65
54248;BME280;40161;39.768;2.722;2023-08-30T12:55:30;100766.88;;;26.15;59.60
54248;BME280;40161;39.768;2.722;2023-08-30T12:57:56;100794.44;;;26.35;60.04
54248;BME280;40161;39.768;2.722;2023-08-30T13:00:23;100771.81;;;26.30;59.98